Pagrindinis puslapis
METAR-TAF:

METAR-TAF

Oro uostai :

Jasai, Rumunija

platuma: 47-10N, ilguma: 027-38E, Aukštis: 102 m

Dabartinis oras

Ataskaita buvo paskelbta 37 minutes, ne 20:00 UTC
Vėjas 3 kt iš Pietų, svyruoja nuo Pietų/Pietryčių ir Pietvakarių
Temperatūra 8°C
Drėgmė 53%
Slėgis 1018 hPa
Matomumas 10 km arba daugiau
nėra debesų žemiau 1500 m ir nėra kamuolinių lietaus debesų

METAR: LRIA 152000Z 19003KT 160V220 CAVOK 08/M01 Q1018 R14/19//95

Laikas: 22:37 (20:37 UTC)

Prognozė

Ataskaita buvo paskelbta 3 valandos ir 37 minutes, ne 17:00 UTC
Prognozė galioja nuo 15 metu 18 UTC su 16 metu 03 UTC
Vėjas 4 kt nuo kintamojo kryptimis
Matomumas 10 km arba daugiau
nėra debesų žemiau 1500 m ir nėra kamuolinių lietaus debesų

TAF: LRIA 151700Z 1518/1603 VRB04KT CAVOK

Orai ataskaitas ir orų prognozės (METAR, TAF).

turimą stotys yra geltonos ir raudonos taškus žemėlapyje.

Perkelti pele per norėdami pamatyti stoties vardą.

Tada spustelėkite, norėdami matyti oro stebėjimo ir prognozės.

Norėdami pakeisti žemėlapį: spustelėkite ant žalios mygtukų su juodo kryžiaus žemyn,; žalią mygtuką su brūkšneliu, jei norite nutolinti; arba žalių rodyklių gretimoms žemėlapius.


METAR-TAF: